Time;durP1;ratioP1;P1;durP2;ratioP2;P2;SDS_P1;SDS_P2;PMS_P1;PMS_P2;Temp;Humidity;BMP_temperature;BMP_pressure;BME280_temperature;BME280_humidity;BME280_pressure;Samples;Min_cycle;Max_cycle;Signal;HPM_P1;HPM_P2
2022/11/14 00:00:53;;;;;;;63.67;32.60;;;11.40;99.90;;;;;;5067269;28;20112;-71
2022/11/14 00:03:19;;;;;;;57.80;31.23;;;11.50;99.90;;;;;;5047058;28;20039;-72
2022/11/14 00:05:45;;;;;;;46.38;27.67;;;11.60;99.90;;;;;;5064426;28;20036;-71
2022/11/14 00:08:16;;;;;;;69.25;33.67;;;11.60;99.90;;;;;;5060226;28;20450;-72
2022/11/14 00:10:44;;;;;;;58.47;31.17;;;11.70;99.90;;;;;;5061554;28;20032;-71
2022/11/14 00:13:10;;;;;;;55.22;31.10;;;11.70;99.90;;;;;;5061989;28;20085;-72
2022/11/14 00:15:35;;;;;;;60.95;32.95;;;11.80;99.90;;;;;;5033442;28;20041;-72
2022/11/14 00:18:01;;;;;;;59.75;31.35;;;11.80;99.90;;;;;;5064453;28;20107;-71
2022/11/14 00:20:27;;;;;;;54.35;31.67;;;11.80;99.90;;;;;;5047110;28;20036;-72
2022/11/14 00:22:52;;;;;;;54.75;31.52;;;11.80;99.90;;;;;;5064511;28;20533;-72
2022/11/14 00:25:18;;;;;;;53.13;31.13;;;11.80;99.90;;;;;;5065632;28;20047;-72
2022/11/14 00:27:43;;;;;;;54.65;30.85;;;11.80;99.90;;;;;;5064911;28;20032;-72
2022/11/14 00:30:09;;;;;;;56.47;31.02;;;11.80;99.90;;;;;;5065112;28;20056;-71
2022/11/14 00:32:35;;;;;;;54.13;30.48;;;11.90;99.90;;;;;;5071149;28;20808;-72
2022/11/14 00:35:00;;;;;;;59.40;32.10;;;11.90;99.90;;;;;;5048265;28;20032;-72
2022/11/14 00:37:26;;;;;;;55.83;31.02;;;11.90;99.90;;;;;;5065810;28;20505;-71
2022/11/14 00:39:52;;;;;;;49.20;29.20;;;11.90;99.90;;;;;;5049670;28;20040;-72
2022/11/14 00:42:17;;;;;;;54.67;31.55;;;11.90;99.90;;;;;;5068548;28;20043;-71
2022/11/14 00:44:43;;;;;;;55.60;30.75;;;11.90;99.90;;;;;;5044324;28;20424;-71
2022/11/14 00:47:08;;;;;;;51.35;30.27;;;11.90;99.90;;;;;;5064751;28;20040;-72
2022/11/14 00:49:34;;;;;;;46.30;28.33;;;11.90;99.90;;;;;;5064813;28;20035;-71
2022/11/14 00:52:00;;;;;;;47.63;27.90;;;11.80;99.90;;;;;;5065006;28;20125;-72
2022/11/14 00:54:26;;;;;;;46.95;28.33;;;11.80;99.90;;;;;;5064161;28;20834;-72
2022/11/14 00:56:51;;;;;;;50.20;30.30;;;11.80;99.90;;;;;;5066124;28;20036;-71
2022/11/14 00:59:17;;;;;;;41.20;26.77;;;11.80;99.90;;;;;;5046280;28;20029;-70
2022/11/14 01:01:42;;;;;;;45.40;27.30;;;11.80;99.90;;;;;;5068747;28;20081;-71
2022/11/14 01:04:08;;;;;;;44.90;27.38;;;11.80;99.90;;;;;;5046535;28;20039;-71
2022/11/14 01:06:34;;;;;;;51.65;30.25;;;11.80;99.90;;;;;;5047358;28;20040;-70
2022/11/14 01:08:59;;;;;;;63.97;33.00;;;11.80;99.90;;;;;;5064832;28;20071;-71
2022/11/14 01:11:25;;;;;;;57.55;33.70;;;11.80;99.90;;;;;;5058181;28;20115;-73
2022/11/14 01:13:50;;;;;;;56.38;31.83;;;11.90;99.90;;;;;;5060222;28;20095;-73
2022/11/14 01:16:16;;;;;;;51.55;31.08;;;11.90;99.90;;;;;;5061082;28;20662;-70
2022/11/14 01:18:41;;;;;;;49.45;29.40;;;11.90;99.90;;;;;;5058886;28;20032;-72
2022/11/14 01:21:09;;;;;;;59.97;33.13;;;11.90;99.90;;;;;;5060929;28;20402;-72
2022/11/14 01:23:35;;;;;;;58.47;32.67;;;12.00;99.90;;;;;;5067278;28;20043;-72
2022/11/14 01:26:09;;;;;;;58.45;33.53;;;12.00;99.90;;;;;;5058696;28;20056;-72
2022/11/14 01:28:35;;;;;;;58.25;32.08;;;12.00;99.90;;;;;;5040447;28;20928;-73
2022/11/14 01:31:27;;;;;;;59.75;34.00;;;12.00;99.90;;;;;;5059252;28;20414;-72
2022/11/14 01:33:53;;;;;;;55.75;31.25;;;12.00;99.90;;;;;;5055889;28;20119;-72
2022/11/14 01:36:20;;;;;;;50.92;29.58;;;12.10;99.90;;;;;;5058086;28;20033;-73
2022/11/14 01:38:46;;;;;;;48.30;30.65;;;12.00;99.90;;;;;;5057858;28;20120;-72
2022/11/14 01:41:14;;;;;;;50.10;30.30;;;12.10;99.90;;;;;;5052309;28;20039;-72
2022/11/14 01:43:40;;;;;;;61.08;32.38;;;12.10;99.90;;;;;;5061141;28;20116;-72
2022/11/14 01:46:13;;;;;;;60.80;34.10;;;12.10;99.90;;;;;;5061331;28;20881;-72
2022/11/14 01:48:58;;;;;;;69.60;32.88;;;12.20;99.90;;;;;;5043673;28;20111;-72
2022/11/14 01:51:35;;;;;;;68.72;33.97;;;12.20;99.90;;;;;;5061250;28;20036;-71
2022/11/14 01:54:07;;;;;;;61.13;32.38;;;12.30;99.90;;;;;;5042783;28;20033;-72
2022/11/14 01:56:47;;;;;;;62.85;33.35;;;12.30;99.90;;;;;;5060716;28;20028;-72
2022/11/14 01:59:21;;;;;;;64.47;33.60;;;12.30;99.90;;;;;;5059393;28;20111;-72
2022/11/14 02:01:52;;;;;;;55.72;31.42;;;12.30;99.90;;;;;;5060737;28;20060;-72
2022/11/14 02:04:30;;;;;;;57.42;31.95;;;12.30;99.90;;;;;;5044894;28;20474;-71
2022/11/14 02:07:02;;;;;;;66.47;34.38;;;12.40;99.90;;;;;;5061848;28;20044;-71
2022/11/14 02:09:31;;;;;;;67.25;34.78;;;12.40;99.90;;;;;;5045686;28;20079;-70
2022/11/14 02:11:59;;;;;;;66.75;33.50;;;12.40;99.90;;;;;;5062930;28;20987;-71
2022/11/14 02:14:26;;;;;;;72.47;33.67;;;12.40;99.90;;;;;;5061610;28;20173;-71
2022/11/14 02:16:52;;;;;;;57.95;32.75;;;12.30;99.90;;;;;;5064456;28;20049;-71
2022/11/14 02:19:18;;;;;;;61.78;33.05;;;12.30;99.90;;;;;;5060360;28;20443;-71
2022/11/14 02:21:44;;;;;;;61.35;32.85;;;12.30;99.90;;;;;;5060629;28;20104;-71
2022/11/14 02:24:11;;;;;;;73.82;35.58;;;12.20;99.90;;;;;;5051080;28;20032;-70
2022/11/14 02:26:37;;;;;;;55.97;31.60;;;12.30;99.90;;;;;;5064375;28;20040;-73
2022/11/14 02:29:04;;;;;;;63.22;32.90;;;12.20;99.90;;;;;;5061295;28;20043;-70
2022/11/14 02:31:30;;;;;;;65.70;32.75;;;12.20;99.90;;;;;;5053893;28;20021;-71
2022/11/14 02:33:56;;;;;;;55.90;32.65;;;12.20;99.90;;;;;;5050090;28;20040;-70
2022/11/14 02:36:21;;;;;;;55.92;31.23;;;12.20;99.90;;;;;;5065518;28;20051;-71
2022/11/14 02:38:47;;;;;;;60.17;32.83;;;12.20;99.90;;;;;;5048993;28;20028;-71
2022/11/14 02:41:12;;;;;;;45.75;27.90;;;12.10;99.90;;;;;;5050085;28;20117;-71
2022/11/14 02:43:38;;;;;;;56.05;31.00;;;12.10;99.90;;;;;;5066781;28;20036;-71
2022/11/14 02:46:04;;;;;;;53.88;31.10;;;12.10;99.90;;;;;;5069458;28;20036;-71
2022/11/14 02:48:29;;;;;;;52.38;29.27;;;12.10;99.90;;;;;;5050776;28;20032;-72
2022/11/14 02:50:55;;;;;;;58.17;31.30;;;12.10;99.90;;;;;;5070613;28;20469;-72
2022/11/14 02:53:20;;;;;;;61.15;33.08;;;12.10;99.90;;;;;;5067084;28;20079;-71
2022/11/14 02:55:46;;;;;;;65.18;33.35;;;12.00;99.90;;;;;;5066023;28;20039;-71
2022/11/14 02:58:12;;;;;;;54.10;28.85;;;12.10;99.90;;;;;;5063934;28;20024;-70
2022/11/14 03:00:37;;;;;;;48.35;29.20;;;12.10;99.90;;;;;;5063261;28;20033;-71
2022/11/14 03:03:03;;;;;;;46.90;28.33;;;12.00;99.90;;;;;;5062931;28;20047;-71
2022/11/14 03:05:28;;;;;;;60.47;32.67;;;12.00;99.90;;;;;;5064549;28;20028;-71
2022/11/14 03:07:55;;;;;;;59.95;31.20;;;12.00;99.90;;;;;;5044963;28;20028;-71
2022/11/14 03:10:22;;;;;;;72.95;32.83;;;12.00;99.90;;;;;;5066382;28;20050;-72
2022/11/14 03:12:52;;;;;;;55.95;32.22;;;12.00;99.90;;;;;;5061829;28;20039;-71
2022/11/14 03:15:18;;;;;;;58.55;32.28;;;12.00;99.90;;;;;;5066714;28;20037;-72
2022/11/14 03:17:44;;;;;;;55.10;30.75;;;12.00;99.90;;;;;;5051762;28;20020;-71
2022/11/14 03:20:10;;;;;;;52.30;30.30;;;12.10;99.90;;;;;;5064523;28;20505;-71
2022/11/14 03:22:35;;;;;;;58.42;31.90;;;12.10;99.90;;;;;;5062387;28;20024;-70
2022/11/14 03:25:01;;;;;;;54.97;30.70;;;12.00;99.90;;;;;;5044295;28;20036;-70
2022/11/14 03:27:26;;;;;;;53.50;30.08;;;12.00;99.90;;;;;;5042771;28;20513;-70
2022/11/14 03:29:52;;;;;;;51.38;29.90;;;12.00;99.90;;;;;;5063033;28;20056;-71
2022/11/14 03:32:17;;;;;;;52.35;29.92;;;12.00;99.90;;;;;;5061868;28;20029;-72
2022/11/14 03:34:43;;;;;;;54.22;30.58;;;12.00;99.90;;;;;;5046849;28;20044;-71
2022/11/14 03:37:09;;;;;;;45.38;28.88;;;12.00;99.90;;;;;;5064682;28;20100;-69
2022/11/14 03:39:35;;;;;;;46.08;27.88;;;12.00;99.90;;;;;;5049114;28;20032;-71
2022/11/14 03:42:00;;;;;;;52.95;29.55;;;12.00;99.90;;;;;;5067040;28;20050;-70
2022/11/14 03:44:26;;;;;;;55.70;30.45;;;11.90;99.90;;;;;;5063907;28;20036;-71
2022/11/14 03:46:51;;;;;;;49.88;29.40;;;11.90;99.90;;;;;;5048482;28;20123;-74
2022/11/14 03:49:17;;;;;;;58.45;32.70;;;11.90;99.90;;;;;;5064938;28;20085;-71
2022/11/14 03:51:43;;;;;;;50.78;28.98;;;11.90;99.90;;;;;;5062518;28;20056;-70
2022/11/14 03:54:09;;;;;;;57.78;31.17;;;11.90;99.90;;;;;;5039943;28;20432;-71
2022/11/14 03:56:35;;;;;;;49.78;29.17;;;11.90;99.90;;;;;;5066734;28;20040;-71
2022/11/14 03:59:00;;;;;;;49.55;28.77;;;11.90;99.90;;;;;;5065872;28;20121;-71
2022/11/14 04:01:27;;;;;;;59.83;32.33;;;11.90;99.90;;;;;;5059116;28;20515;-71
2022/11/14 04:03:52;;;;;;;56.88;31.45;;;11.80;99.90;;;;;;5057612;28;20043;-71
2022/11/14 04:06:18;;;;;;;74.05;35.88;;;11.90;99.90;;;;;;5062466;28;20045;-70
2022/11/14 04:08:43;;;;;;;73.80;36.13;;;11.80;99.90;;;;;;5063655;28;20586;-70
2022/11/14 04:11:09;;;;;;;76.47;36.45;;;11.80;99.90;;;;;;5044548;28;20029;-70
2022/11/14 04:13:34;;;;;;;75.20;36.95;;;11.80;99.90;;;;;;5064581;28;20037;-71
2022/11/14 04:16:00;;;;;;;61.05;32.28;;;11.80;99.90;;;;;;5064944;28;20033;-70
2022/11/14 04:18:26;;;;;;;78.53;36.33;;;11.90;99.90;;;;;;5047589;28;20029;-73
2022/11/14 04:20:52;;;;;;;65.50;32.92;;;11.90;99.90;;;;;;5045948;28;20059;-70
2022/11/14 04:23:18;;;;;;;65.35;33.10;;;11.90;99.90;;;;;;5065149;28;20466;-71
2022/11/14 04:25:45;;;;;;;62.17;33.63;;;11.90;99.90;;;;;;5044292;28;20044;-71
2022/11/14 04:28:11;;;;;;;88.28;37.05;;;11.90;99.90;;;;;;5064377;28;20036;-72
2022/11/14 04:30:37;;;;;;;79.57;35.63;;;11.90;99.90;;;;;;5063875;28;20028;-72
2022/11/14 04:33:02;;;;;;;70.65;34.88;;;11.90;99.90;;;;;;5064265;28;20081;-73
2022/11/14 04:35:28;;;;;;;72.88;32.97;;;12.00;99.90;;;;;;5063904;28;20024;-72
2022/11/14 04:37:54;;;;;;;111.85;38.75;;;11.90;99.90;;;;;;5062337;28;20032;-73
2022/11/14 04:40:19;;;;;;;82.63;35.17;;;11.90;99.90;;;;;;5066529;28;20029;-72
2022/11/14 04:42:45;;;;;;;111.05;36.75;;;11.90;99.90;;;;;;5064115;28;20031;-72
2022/11/14 04:45:10;;;;;;;156.98;38.22;;;12.00;99.90;;;;;;5064268;28;20111;-72
2022/11/14 04:47:36;;;;;;;101.78;33.92;;;12.00;99.90;;;;;;5064725;28;20116;-72
2022/11/14 04:50:03;;;;;;;142.27;35.88;;;12.00;99.90;;;;;;5064911;28;20043;-72
2022/11/14 04:52:28;;;;;;;94.53;33.67;;;11.90;99.90;;;;;;5062931;28;20155;-72
2022/11/14 04:54:54;;;;;;;152.98;36.72;;;12.00;99.90;;;;;;5063040;28;20195;-72
2022/11/14 04:57:20;;;;;;;198.05;40.10;;;11.90;99.90;;;;;;5063368;28;20070;-72
2022/11/14 04:59:45;;;;;;;124.45;36.15;;;11.90;99.90;;;;;;5064191;28;20037;-72
2022/11/14 05:02:11;;;;;;;137.65;37.55;;;11.90;99.90;;;;;;5063142;28;20025;-72
2022/11/14 05:04:36;;;;;;;62.83;27.83;;;11.90;99.90;;;;;;5064901;28;20556;-71
2022/11/14 05:07:02;;;;;;;89.07;31.55;;;11.90;99.90;;;;;;5063175;28;20128;-72
2022/11/14 05:09:28;;;;;;;127.85;33.30;;;11.90;99.90;;;;;;5041916;28;20056;-71
2022/11/14 05:11:53;;;;;;;65.32;24.02;;;11.90;99.90;;;;;;5064388;28;20028;-71
2022/11/14 05:14:19;;;;;;;95.45;32.72;;;11.90;99.90;;;;;;5046627;28;20136;-72
2022/11/14 05:16:44;;;;;;;65.00;25.77;;;11.90;99.90;;;;;;5065336;28;20040;-70
2022/11/14 05:19:10;;;;;;;85.05;29.83;;;11.90;99.90;;;;;;5064990;28;20028;-72
2022/11/14 05:21:35;;;;;;;94.30;30.42;;;11.90;99.90;;;;;;5062679;28;20170;-72
2022/11/14 05:24:01;;;;;;;87.75;31.52;;;11.90;99.90;;;;;;5050612;28;20075;-72
2022/11/14 05:26:27;;;;;;;92.45;32.78;;;11.90;99.90;;;;;;5064318;28;20037;-71
2022/11/14 05:28:52;;;;;;;81.30;31.67;;;11.90;99.90;;;;;;5072175;28;20093;-72
2022/11/14 05:31:18;;;;;;;63.95;30.30;;;11.90;99.90;;;;;;5065652;28;20035;-72
2022/11/14 05:33:45;;;;;;;52.72;29.30;;;11.90;99.90;;;;;;5045107;28;20037;-71
2022/11/14 05:36:13;;;;;;;81.13;31.83;;;11.90;99.90;;;;;;5065912;28;20025;-73
2022/11/14 05:38:40;;;;;;;54.30;30.40;;;11.90;99.90;;;;;;5060753;28;20033;-72
2022/11/14 05:41:06;;;;;;;59.80;30.13;;;11.80;99.90;;;;;;5048096;28;20550;-71
2022/11/14 05:43:32;;;;;;;61.63;29.13;;;11.80;99.90;;;;;;5064192;28;20713;-72
2022/11/14 05:46:03;;;;;;;70.43;31.60;;;11.80;99.90;;;;;;5064980;28;20036;-73
2022/11/14 05:48:29;;;;;;;66.25;30.50;;;11.80;99.90;;;;;;5062116;28;20025;-72
2022/11/14 05:50:56;;;;;;;60.85;30.60;;;11.80;99.90;;;;;;5044633;28;20020;-72
2022/11/14 05:53:22;;;;;;;74.78;32.03;;;11.70;99.90;;;;;;5064213;28;20118;-72
2022/11/14 05:55:47;;;;;;;45.42;27.95;;;11.70;99.90;;;;;;5054276;28;20064;-72
2022/11/14 05:58:13;;;;;;;53.88;29.27;;;11.70;99.90;;;;;;5061404;28;20025;-72
2022/11/14 06:00:38;;;;;;;50.55;29.30;;;11.70;99.90;;;;;;5057239;28;20032;-73
2022/11/14 06:03:04;;;;;;;51.30;30.67;;;11.70;99.90;;;;;;5061367;28;20036;-72
2022/11/14 06:05:29;;;;;;;60.50;32.13;;;11.70;99.90;;;;;;5062330;28;20032;-72
2022/11/14 06:07:56;;;;;;;53.08;30.65;;;11.70;99.90;;;;;;5060325;28;20032;-72
2022/11/14 06:10:22;;;;;;;55.60;30.75;;;11.70;99.90;;;;;;5064977;28;20149;-72
2022/11/14 06:12:48;;;;;;;52.85;29.10;;;11.70;99.90;;;;;;5068189;28;20166;-72
2022/11/14 06:15:14;;;;;;;57.08;30.10;;;11.60;99.90;;;;;;5075571;28;20546;-72
2022/11/14 06:17:39;;;;;;;49.30;28.20;;;11.60;99.90;;;;;;5068874;28;20063;-72
2022/11/14 06:20:06;;;;;;;63.70;29.20;;;11.50;99.90;;;;;;5071428;28;20103;-72
2022/11/14 06:22:32;;;;;;;64.50;25.02;;;11.40;99.90;;;;;;5071455;28;20033;-71
2022/11/14 06:24:57;;;;;;;66.80;29.90;;;11.50;99.90;;;;;;5068738;28;20033;-71
2022/11/14 06:27:23;;;;;;;59.38;29.35;;;11.50;99.90;;;;;;5057556;28;20044;-71
2022/11/14 06:29:49;;;;;;;108.13;35.95;;;11.50;99.90;;;;;;5064514;28;20481;-71
2022/11/14 06:32:14;;;;;;;64.35;32.65;;;11.50;99.90;;;;;;5067506;28;20037;-72
2022/11/14 06:34:40;;;;;;;76.18;34.45;;;11.50;99.90;;;;;;5056472;28;20158;-72
2022/11/14 06:37:05;;;;;;;90.68;36.88;;;11.50;99.90;;;;;;5069000;28;20028;-70
2022/11/14 06:39:31;;;;;;;59.38;32.15;;;11.60;99.90;;;;;;5058530;28;20388;-71
2022/11/14 06:41:57;;;;;;;60.10;32.53;;;11.60;99.90;;;;;;5049342;28;20033;-72
2022/11/14 06:44:22;;;;;;;60.97;33.20;;;11.60;99.90;;;;;;5067716;28;20095;-70
2022/11/14 06:46:48;;;;;;;102.10;37.10;;;11.60;99.90;;;;;;5045569;28;20128;-71
2022/11/14 06:49:14;;;;;;;57.40;32.22;;;11.60;99.90;;;;;;5068752;28;20115;-72
2022/11/14 06:51:39;;;;;;;68.90;32.90;;;11.60;99.90;;;;;;5048146;28;20024;-72
2022/11/14 06:54:05;;;;;;;56.60;32.17;;;11.60;99.90;;;;;;5051946;28;20028;-72
2022/11/14 06:56:30;;;;;;;50.22;30.05;;;11.60;99.90;;;;;;5067190;28;20479;-71
2022/11/14 06:58:56;;;;;;;67.80;33.38;;;11.70;99.90;;;;;;5066413;28;20721;-71
2022/11/14 07:01:27;;;;;;;78.70;35.33;;;11.70;99.90;;;;;;5065982;28;20025;-72
2022/11/14 07:03:53;;;;;;;65.72;34.35;;;11.70;99.90;;;;;;5067992;28;20030;-71
2022/11/14 07:06:22;;;;;;;75.90;36.38;;;11.70;99.90;;;;;;5067650;28;20116;-72
2022/11/14 07:08:47;;;;;;;57.67;33.28;;;11.70;99.90;;;;;;5065967;28;20035;-72
2022/11/14 07:11:22;;;;;;;77.07;34.70;;;11.80;99.90;;;;;;5064178;28;20040;-72
2022/11/14 07:14:03;;;;;;;64.05;33.50;;;11.80;99.90;;;;;;5063053;28;20023;-71
2022/11/14 07:16:31;;;;;;;71.25;35.00;;;11.80;99.90;;;;;;5066518;28;20041;-72
2022/11/14 07:18:57;;;;;;;77.40;36.22;;;11.80;99.90;;;;;;5068047;28;20052;-72
2022/11/14 07:21:24;;;;;;;62.60;34.03;;;11.80;99.90;;;;;;5068593;28;20041;-71
2022/11/14 07:23:50;;;;;;;94.18;36.20;;;11.90;99.90;;;;;;5063315;28;20024;-71
2022/11/14 07:26:16;;;;;;;87.78;34.63;;;11.80;99.90;;;;;;5064318;28;20045;-71
2022/11/14 07:28:43;;;;;;;94.00;35.65;;;11.80;99.90;;;;;;5063021;28;20033;-70
2022/11/14 07:31:13;;;;;;;111.88;36.33;;;11.80;99.90;;;;;;5066157;28;20038;-73
2022/11/14 07:33:39;;;;;;;68.82;33.00;;;11.80;99.90;;;;;;5063692;28;20658;-71
2022/11/14 07:36:05;;;;;;;66.88;30.83;;;11.80;99.90;;;;;;5048065;28;20482;-71
2022/11/14 07:38:32;;;;;;;76.00;32.08;;;11.80;99.90;;;;;;5061642;28;20029;-70
2022/11/14 07:40:57;;;;;;;60.85;29.52;;;11.80;99.90;;;;;;5047612;28;20020;-71
2022/11/14 07:43:24;;;;;;;105.20;33.47;;;11.80;99.90;;;;;;5066201;28;20174;-72
2022/11/14 07:45:50;;;;;;;54.47;28.88;;;11.80;99.90;;;;;;5063764;28;20048;-72
2022/11/14 07:48:16;;;;;;;54.55;30.63;;;11.80;99.90;;;;;;5048042;28;20052;-71
2022/11/14 07:50:42;;;;;;;53.70;31.92;;;11.80;99.90;;;;;;5051462;28;20035;-72
2022/11/14 07:53:08;;;;;;;60.90;31.10;;;11.80;99.90;;;;;;5066590;28;20057;-71
2022/11/14 07:55:37;;;;;;;71.38;32.70;;;11.90;99.90;;;;;;5066294;28;20056;-71
2022/11/14 07:58:03;;;;;;;70.05;33.40;;;11.80;99.90;;;;;;5065937;28;20035;-71
2022/11/14 08:00:29;;;;;;;44.20;26.23;;;11.90;99.90;;;;;;5048960;28;20082;-71
2022/11/14 08:02:54;;;;;;;59.92;29.30;;;11.90;99.90;;;;;;5065268;28;20028;-72
2022/11/14 08:05:20;;;;;;;61.50;30.35;;;11.90;99.90;;;;;;5047345;28;20029;-72
2022/11/14 08:07:50;;;;;;;65.82;33.63;;;11.90;99.90;;;;;;5068053;28;20068;-73
2022/11/14 08:10:16;;;;;;;96.10;42.40;;;11.90;99.90;;;;;;5065178;28;20106;-72
2022/11/14 08:12:42;;;;;;;89.82;38.83;;;12.00;99.90;;;;;;5065517;28;20021;-72
2022/11/14 08:15:10;;;;;;;76.93;36.45;;;12.00;99.90;;;;;;5042752;28;20037;-71
2022/11/14 08:17:36;;;;;;;48.97;28.02;;;12.00;99.90;;;;;;5060126;28;20040;-73
2022/11/14 08:20:02;;;;;;;61.92;31.35;;;12.10;99.90;;;;;;5059042;28;20060;-71
2022/11/14 08:22:29;;;;;;;58.38;31.83;;;12.10;99.90;;;;;;5061438;28;20024;-72
2022/11/14 08:24:55;;;;;;;97.65;35.63;;;12.20;99.90;;;;;;5066225;28;20111;-71
2022/11/14 08:27:21;;;;;;;81.88;37.95;;;12.20;99.90;;;;;;5066980;28;20135;-72
2022/11/14 08:29:47;;;;;;;93.50;39.03;;;12.20;99.90;;;;;;5049241;28;20025;-72
2022/11/14 08:32:14;;;;;;;78.80;36.85;;;12.20;99.90;;;;;;5067366;28;20107;-72
2022/11/14 08:34:39;;;;;;;73.22;35.47;;;12.30;99.90;;;;;;5067321;28;20474;-72
2022/11/14 08:37:05;;;;;;;88.65;35.42;;;12.30;99.90;;;;;;5070339;28;20036;-72
2022/11/14 08:39:31;;;;;;;82.43;37.38;;;12.40;99.90;;;;;;5047852;28;20036;-71
2022/11/14 08:41:56;;;;;;;113.20;36.35;;;12.50;99.90;;;;;;5047975;28;20126;-72
2022/11/14 08:44:22;;;;;;;76.40;30.33;;;12.50;99.90;;;;;;5065568;28;20482;-72
2022/11/14 08:46:49;;;;;;;62.88;31.40;;;12.50;99.90;;;;;;5047631;28;20176;-72
2022/11/14 08:49:15;;;;;;;56.15;29.90;;;12.50;99.90;;;;;;5067127;28;20020;-72
2022/11/14 08:51:40;;;;;;;73.22;31.23;;;12.60;99.90;;;;;;5063426;28;20028;-72
2022/11/14 08:54:06;;;;;;;67.35;32.05;;;12.60;99.90;;;;;;5049617;28;20170;-73
2022/11/14 08:56:31;;;;;;;74.25;31.60;;;12.70;99.90;;;;;;5057610;28;20242;-72
2022/11/14 08:58:57;;;;;;;74.90;32.05;;;12.70;99.90;;;;;;5068418;28;20111;-72
2022/11/14 09:01:23;;;;;;;65.25;32.08;;;12.80;99.90;;;;;;5049014;28;20078;-72
2022/11/14 09:03:48;;;;;;;64.82;31.52;;;12.80;99.90;;;;;;5068642;28;20025;-71
2022/11/14 09:06:14;;;;;;;82.53;33.17;;;12.90;99.90;;;;;;5063930;28;20040;-73
2022/11/14 09:08:39;;;;;;;78.15;32.75;;;12.90;99.90;;;;;;5032967;28;20038;-73
2022/11/14 09:11:05;;;;;;;66.40;31.13;;;13.00;99.90;;;;;;5028870;28;20033;-70
2022/11/14 09:13:32;;;;;;;54.63;28.60;;;13.10;99.90;;;;;;5048695;28;20071;-70
2022/11/14 09:15:58;;;;;;;53.15;28.83;;;13.40;99.90;;;;;;5065181;28;20040;-72
2022/11/14 09:18:24;;;;;;;46.60;27.50;;;13.60;99.90;;;;;;5052047;28;20078;-73
2022/11/14 09:20:49;;;;;;;42.55;26.25;;;13.90;99.90;;;;;;5048136;28;20038;-70
2022/11/14 09:23:15;;;;;;;35.88;23.42;;;14.20;99.90;;;;;;5065304;28;20028;-71
2022/11/14 09:25:40;;;;;;;32.35;22.02;;;14.50;99.90;;;;;;5067036;28;20105;-70
2022/11/14 09:28:07;;;;;;;32.40;21.40;;;14.80;99.90;;;;;;5068865;28;20024;-71
2022/11/14 09:30:35;;;;;;;29.33;21.02;;;15.10;99.90;;;;;;5070372;28;20032;-72
2022/11/14 09:33:02;;;;;;;25.95;18.48;;;15.50;99.90;;;;;;5069944;28;20052;-71
2022/11/14 09:35:29;;;;;;;26.20;18.50;;;15.80;99.90;;;;;;5066768;28;20506;-71
2022/11/14 09:38:03;;;;;;;22.98;17.45;;;16.10;99.90;;;;;;5048758;28;20502;-72
2022/11/14 09:40:33;;;;;;;24.20;17.75;;;16.50;99.90;;;;;;5037494;28;20032;-71
2022/11/14 09:43:26;;;;;;;24.25;16.60;;;16.60;99.90;;;;;;5050224;28;20032;-71
2022/11/14 09:45:52;;;;;;;25.13;17.60;;;16.70;99.90;;;;;;5067451;28;20041;-71
2022/11/14 09:48:26;;;;;;;21.60;15.02;;;16.90;99.90;;;;;;5066246;28;20334;-71
2022/11/14 09:51:29;;;;;;;21.10;14.18;;;17.10;99.90;;;;;;5069147;28;20033;-70
2022/11/14 09:54:20;;;;;;;20.27;14.35;;;17.30;99.90;;;;;;5068682;28;20063;-70
2022/11/14 09:56:46;;;;;;;19.90;14.13;;;17.20;99.90;;;;;;5065628;28;20044;-71
2022/11/14 09:59:13;;;;;;;18.08;12.43;;;17.10;99.90;;;;;;5057255;28;20028;-71
2022/11/14 10:01:56;;;;;;;20.13;13.65;;;17.00;99.90;;;;;;5069311;28;20086;-71
2022/11/14 10:04:59;;;;;;;20.90;12.82;;;17.00;99.90;;;;;;5048710;28;20025;-72
2022/11/14 10:08:02;;;;;;;17.65;12.00;;;17.50;99.90;;;;;;5048935;28;20044;-73
2022/11/14 10:10:31;;;;;;;18.08;12.70;;;17.50;99.90;;;;;;5049780;28;20478;-72
2022/11/14 10:13:02;;;;;;;15.90;10.40;;;17.50;99.90;;;;;;5049592;28;20371;-72
2022/11/14 10:15:57;;;;;;;14.68;10.43;;;17.40;99.90;;;;;;5049682;28;20035;-72
2022/11/14 10:18:38;;;;;;;14.55;10.02;;;17.50;99.90;;;;;;5050117;28;20021;-72
2022/11/14 10:21:22;;;;;;;13.48;9.52;;;17.40;99.90;;;;;;5031761;28;20025;-71
2022/11/14 10:24:17;;;;;;;14.73;8.90;;;17.50;99.90;;;;;;5049768;28;20025;-72
2022/11/14 10:26:58;;;;;;;13.38;10.02;;;17.60;99.90;;;;;;5049592;28;20044;-72
2022/11/14 10:29:39;;;;;;;15.73;10.63;;;17.60;99.90;;;;;;5049775;28;20506;-72
2022/11/14 10:32:17;;;;;;;16.02;10.13;;;17.60;99.90;;;;;;5048339;28;20037;-72
2022/11/14 10:34:57;;;;;;;14.55;10.13;;;17.80;99.90;;;;;;5050006;28;20615;-72
2022/11/14 10:37:38;;;;;;;14.95;10.68;;;17.70;99.90;;;;;;5049128;28;20028;-71
2022/11/14 10:40:37;;;;;;;14.27;9.93;;;17.80;99.90;;;;;;5048603;28;20112;-71
2022/11/14 10:43:32;;;;;;;11.70;9.18;;;17.90;99.90;;;;;;5048839;28;20037;-72
2022/11/14 10:46:47;;;;;;;14.07;9.32;;;18.00;99.90;;;;;;5027146;28;20049;-72
2022/11/14 10:49:24;;;;;;;14.93;8.27;;;18.00;99.90;;;;;;5015402;28;20041;-72
2022/11/14 10:51:53;;;;;;;13.35;8.77;;;18.00;99.90;;;;;;5049176;28;20395;-72
2022/11/14 10:54:41;;;;;;;12.88;8.45;;;17.80;99.90;;;;;;5029968;28;20048;-71
2022/11/14 10:57:20;;;;;;;13.60;8.77;;;17.90;99.90;;;;;;5049418;28;20098;-73
2022/11/14 10:59:46;;;;;;;11.38;7.47;;;18.20;99.90;;;;;;5049262;28;20117;-72
2022/11/14 11:02:12;;;;;;;12.55;8.18;;;18.40;99.90;;;;;;5031351;28;20071;-71
2022/11/14 11:04:42;;;;;;;11.20;7.72;;;19.00;99.90;;;;;;5049773;28;20029;-73
2022/11/14 11:07:08;;;;;;;11.40;7.47;;;19.70;99.90;;;;;;5031008;28;20519;-73
2022/11/14 11:12:36;;;;;;;11.27;7.10;;;19.90;99.90;;;;;;5049447;28;20662;-72
2022/11/14 11:15:30;;;;;;;14.67;7.63;;;19.60;99.90;;;;;;5053955;28;20028;-72
2022/11/14 11:17:59;;;;;;;11.52;6.95;;;19.70;99.90;;;;;;5066311;28;20044;-72
2022/11/14 11:20:30;;;;;;;17.13;7.70;;;19.40;99.90;;;;;;5069124;28;20025;-72
2022/11/14 11:23:26;;;;;;;10.32;7.18;;;19.10;99.90;;;;;;5050796;28;20074;-72
2022/11/14 11:26:04;;;;;;;11.63;6.70;;;18.90;99.90;;;;;;5051593;28;20044;-73
2022/11/14 11:28:32;;;;;;;10.38;6.63;;;18.80;99.90;;;;;;5068401;28;20029;-72
2022/11/14 11:30:59;;;;;;;11.63;6.78;;;18.80;99.90;;;;;;5050385;28;20081;-72
2022/11/14 11:33:32;;;;;;;9.88;6.13;;;18.60;99.90;;;;;;5050580;28;20025;-73
2022/11/14 11:36:11;;;;;;;10.60;6.68;;;18.50;99.90;;;;;;5050653;28;20131;-72
2022/11/14 11:38:36;;;;;;;12.65;6.40;;;18.40;99.90;;;;;;5051634;28;20078;-73
2022/11/14 11:41:25;;;;;;;10.02;6.32;;;18.40;99.90;;;;;;5072637;28;20052;-73
2022/11/14 11:43:58;;;;;;;12.30;6.15;;;18.40;99.90;;;;;;5030306;28;20032;-73
2022/11/14 11:46:59;;;;;;;11.57;6.38;;;18.30;99.90;;;;;;5049068;28;20121;-72
2022/11/14 11:49:45;;;;;;;10.73;6.30;;;18.20;99.90;;;;;;5064003;28;20574;-73
2022/11/14 11:52:30;;;;;;;10.02;6.45;;;18.10;99.90;;;;;;5066103;28;20108;-70
2022/11/14 11:55:04;;;;;;;12.27;6.03;;;18.10;99.90;;;;;;5062028;28;20021;-70
2022/11/14 11:58:01;;;;;;;11.95;6.18;;;18.00;99.90;;;;;;5067161;28;20032;-70
2022/11/14 12:00:28;;;;;;;11.02;6.60;;;18.00;99.90;;;;;;5067985;28;20024;-70
2022/11/14 12:02:53;;;;;;;11.90;5.95;;;18.00;99.90;;;;;;5062697;28;20143;-70
2022/11/14 12:05:37;;;;;;;12.35;6.18;;;18.00;99.90;;;;;;5061572;28;20498;-70
2022/11/14 12:08:08;;;;;;;14.10;6.22;;;18.00;99.90;;;;;;5068966;28;20032;-69
2022/11/14 12:10:38;;;;;;;9.05;4.93;;;18.00;99.90;;;;;;5074626;28;20482;-69
2022/11/14 12:13:26;;;;;;;9.05;5.43;;;18.00;99.90;;;;;;5067668;28;20079;-69
2022/11/14 12:16:24;;;;;;;9.27;5.50;;;18.00;99.90;;;;;;5062858;28;20037;-70
2022/11/14 12:19:04;;;;;;;10.80;6.03;;;17.80;99.90;;;;;;5018091;28;20036;-70
2022/11/14 12:21:44;;;;;;;11.50;6.50;;;17.80;99.90;;;;;;5054860;28;20031;-69
2022/11/14 12:24:37;;;;;;;8.82;5.90;;;17.80;99.90;;;;;;5049629;28;20624;-69
2022/11/14 12:27:29;;;;;;;10.57;5.95;;;17.80;99.90;;;;;;5066645;28;20107;-69
2022/11/14 12:30:12;;;;;;;11.02;6.07;;;17.90;99.90;;;;;;5066600;28;20020;-69
2022/11/14 12:32:51;;;;;;;20.08;6.13;;;17.90;99.90;;;;;;5066421;28;20048;-70
2022/11/14 12:35:26;;;;;;;11.00;5.70;;;17.90;99.90;;;;;;5040972;28;20028;-69
2022/11/14 12:37:54;;;;;;;10.63;5.82;;;17.90;99.90;;;;;;5065310;28;20040;-69
2022/11/14 12:40:35;;;;;;;7.82;5.43;;;17.90;99.90;;;;;;5060861;28;20479;-69
2022/11/14 12:43:02;;;;;;;9.38;5.60;;;17.80;99.90;;;;;;5066844;28;20100;-69